Big Bear Station Historical Data
Daily Summary for March 16, 2017 Units:  English    Metric   Both
« Previous Day
Next Day »
Daily Weekly Monthly Yearly Custom
  High: Low: Average:
Temperature: 65.5 °F 34.9 °F 47.2 °F
Dew Point: 39.4 °F 27.6 °F 33.4 °F
Humidity: 91 % 26 % 63 %
Wind Speed: 4.7 mph 0.0 mph 1.7 mph
Wind Gust: -999.0 mph - -
Wind:- - SW
Pressure: 30.33 in 30.27 in -
Precipitation: 0.00 in    
Historical Graphs
 
 
Tabular Data for March 16, 2017
Time Temperature Dew Point Pressure Wind Wind Speed Wind Gust Humidity Rainfall Rate (Hourly)
00:05 36.7 °F 32.3 °F 30.33 in Calm   -999.0 mph 84 % 0 in
00:20 37.0 °F 32.3 °F 30.32 in SSE 1.7 mph -999.0 mph 83 % 0 in
00:35 36.7 °F 31.7 °F 30.32 in SSW 2.2 mph -999.0 mph 82 % 0 in
00:51 36.5 °F 30.9 °F 30.32 in SSW 1.7 mph -999.0 mph 80 % 0 in
01:06 36.3 °F 30.7 °F 30.32 in Calm   -999.0 mph 80 % 0 in
01:21 36.9 °F 31.0 °F 30.32 in South 2.2 mph -999.0 mph 79 % 0 in
01:36 36.7 °F 32.0 °F 30.32 in SSW 1.7 mph -999.0 mph 83 % 0 in
01:51 36.1 °F 31.4 °F 30.32 in SSE 1.1 mph -999.0 mph 83 % 0 in
02:07 37.4 °F 31.2 °F 30.31 in South 2.2 mph -999.0 mph 78 % 0 in
02:22 36.7 °F 31.1 °F 30.31 in Calm   -999.0 mph 80 % 0 in
02:37 36.7 °F 30.5 °F 30.31 in SSE 2.2 mph -999.0 mph 78 % 0 in
02:53 37.4 °F 30.8 °F 30.31 in SSW 2.7 mph -999.0 mph 77 % 0 in
03:08 36.1 °F 29.9 °F 30.30 in Calm   -999.0 mph 78 % 0 in
03:23 36.3 °F 31.0 °F 30.30 in SSE 2.7 mph -999.0 mph 81 % 0 in
03:38 36.3 °F 30.4 °F 30.30 in Calm   -999.0 mph 79 % 0 in
03:53 36.9 °F 31.0 °F 30.29 in SSE 2.2 mph -999.0 mph 79 % 0 in
04:09 36.3 °F 30.7 °F 30.29 in SSE 2.2 mph -999.0 mph 80 % 0 in
04:24 37.0 °F 31.4 °F 30.29 in South 1.1 mph -999.0 mph 80 % 0 in
04:39 37.2 °F 31.3 °F 30.29 in SSW 2.7 mph -999.0 mph 79 % 0 in
04:55 37.0 °F 31.1 °F 30.29 in Calm   -999.0 mph 79 % 0 in
05:10 37.2 °F 32.2 °F 30.29 in South 2.7 mph -999.0 mph 82 % 0 in
05:25 36.1 °F 30.8 °F 30.29 in South 3.2 mph -999.0 mph 81 % 0 in
05:40 35.8 °F 30.2 °F 30.29 in Calm   -999.0 mph 80 % 0 in
05:55 36.0 °F 30.4 °F 30.30 in Calm   -999.0 mph 80 % 0 in
06:11 35.6 °F 30.3 °F 30.30 in Calm   -999.0 mph 81 % 0 in
06:26 36.0 °F 30.7 °F 30.29 in SSE 1.7 mph -999.0 mph 81 % 0 in
06:41 35.4 °F 30.8 °F 30.30 in SSE 2.2 mph -999.0 mph 83 % 0 in
06:56 34.9 °F 30.6 °F 30.30 in Calm   -999.0 mph 84 % 0 in
07:12 34.9 °F 30.6 °F 30.30 in Calm   -999.0 mph 84 % 0 in
07:27 35.2 °F 30.6 °F 30.31 in SSW 1.7 mph -999.0 mph 83 % 0 in
07:42 35.1 °F 30.5 °F 30.31 in SSE 1.7 mph -999.0 mph 83 % 0 in
07:58 35.8 °F 30.8 °F 30.31 in ESE 1.7 mph -999.0 mph 82 % 0 in
08:13 39.9 °F 32.3 °F 30.31 in South 1.7 mph -999.0 mph 74 % 0 in
08:28 42.1 °F 33.7 °F 30.31 in Calm   -999.0 mph 72 % 0 in
08:43 43.9 °F 31.7 °F 30.31 in SSW 1.7 mph -999.0 mph 62 % 0 in
08:59 45.9 °F 29.7 °F 30.32 in WNW 2.7 mph -999.0 mph 53 % 0 in
09:14 47.8 °F 28.0 °F 30.32 in West 1.1 mph -999.0 mph 46 % 0 in
09:29 49.6 °F 28.0 °F 30.32 in WSW 1.1 mph -999.0 mph 43 % 0 in
09:44 51.3 °F 27.8 °F 30.32 in WNW 2.7 mph -999.0 mph 40 % 0 in
10:00 52.5 °F 27.6 °F 30.32 in West 3.2 mph -999.0 mph 38 % 0 in
10:15 53.1 °F 29.4 °F 30.32 in WSW 1.7 mph -999.0 mph 40 % 0 in
10:30 54.1 °F 28.4 °F 30.33 in West 2.2 mph -999.0 mph 37 % 0 in
10:45 55.6 °F 29.7 °F 30.33 in NE 2.7 mph -999.0 mph 37 % 0 in
11:01 57.9 °F 31.8 °F 30.33 in NW 2.7 mph -999.0 mph 37 % 0 in
11:16 59.2 °F 31.6 °F 30.33 in WNW 1.1 mph -999.0 mph 35 % 0 in
11:31 61.0 °F 34.5 °F 30.32 in WNW 1.7 mph -999.0 mph 37 % 0 in
11:46 60.8 °F 31.5 °F 30.32 in NW 1.7 mph -999.0 mph 33 % 0 in
12:02 62.1 °F 32.6 °F 30.32 in NW 2.7 mph -999.0 mph 33 % 0 in
12:18 62.8 °F 35.4 °F 30.32 in NW 3.2 mph -999.0 mph 36 % 0 in
12:33 63.1 °F 29.5 °F 30.32 in NNW 1.7 mph -999.0 mph 28 % 0 in
12:48 63.5 °F 28.0 °F 30.31 in NNW 4.2 mph -999.0 mph 26 % 0 in
13:04 63.5 °F 30.7 °F 30.31 in WNW 4.2 mph -999.0 mph 29 % 0 in
13:19 64.0 °F 34.3 °F 30.30 in NNW 4.2 mph -999.0 mph 33 % 0 in
13:34 64.2 °F 32.9 °F 30.30 in NW 2.7 mph -999.0 mph 31 % 0 in
13:49 65.5 °F 34.9 °F 30.29 in West 2.2 mph -999.0 mph 32 % 0 in
14:05 64.2 °F 35.2 °F 30.29 in NW 3.7 mph -999.0 mph 34 % 0 in
14:20 64.9 °F 33.5 °F 30.29 in North 4.2 mph -999.0 mph 31 % 0 in
14:35 63.5 °F 35.4 °F 30.29 in NW 3.7 mph -999.0 mph 35 % 0 in
14:50 64.6 °F 32.5 °F 30.28 in NNW 2.7 mph -999.0 mph 30 % 0 in
15:06 62.4 °F 37.1 °F 30.28 in NW 3.7 mph -999.0 mph 39 % 0 in
15:21 63.9 °F 35.0 °F 30.28 in NE 1.1 mph -999.0 mph 34 % 0 in
15:36 62.6 °F 37.3 °F 30.28 in WNW 2.7 mph -999.0 mph 39 % 0 in
15:52 60.6 °F 39.1 °F 30.28 in NW 2.2 mph -999.0 mph 45 % 0 in
16:07 61.2 °F 38.5 °F 30.28 in North 2.7 mph -999.0 mph 43 % 0 in
16:22 60.8 °F 38.2 °F 30.28 in NW 4.7 mph -999.0 mph 43 % 0 in
16:38 59.7 °F 39.4 °F 30.27 in SW 3.7 mph -999.0 mph 47 % 0 in
16:53 59.5 °F 38.7 °F 30.27 in WNW 2.2 mph -999.0 mph 46 % 0 in
17:08 59.0 °F 38.8 °F 30.27 in WNW 3.2 mph -999.0 mph 47 % 0 in
17:23 60.1 °F 39.2 °F 30.27 in SW 1.1 mph -999.0 mph 46 % 0 in
17:39 58.8 °F 38.6 °F 30.27 in WSW 2.2 mph -999.0 mph 47 % 0 in
17:54 56.7 °F 38.3 °F 30.27 in SE 1.1 mph -999.0 mph 50 % 0 in
18:09 55.4 °F 37.6 °F 30.27 in NW 4.2 mph -999.0 mph 51 % 0 in
18:24 54.0 °F 37.7 °F 30.27 in NNE 1.7 mph -999.0 mph 54 % 0 in
18:40 52.7 °F 37.4 °F 30.27 in Calm   -999.0 mph 56 % 0 in
18:55 51.6 °F 38.2 °F 30.27 in Calm   -999.0 mph 60 % 0 in
19:10 50.2 °F 38.1 °F 30.27 in South 1.7 mph -999.0 mph 63 % 0 in
19:25 48.6 °F 37.8 °F 30.27 in Calm   -999.0 mph 66 % 0 in
19:40 47.3 °F 37.3 °F 30.28 in Calm   -999.0 mph 68 % 0 in
19:56 46.4 °F 37.1 °F 30.29 in SSE 1.7 mph -999.0 mph 70 % 0 in
20:11 45.3 °F 37.2 °F 30.29 in SSW 1.1 mph -999.0 mph 73 % 0 in
20:26 44.2 °F 36.4 °F 30.29 in South 1.7 mph -999.0 mph 74 % 0 in
20:41 43.3 °F 36.6 °F 30.30 in Calm   -999.0 mph 77 % 0 in
20:56 42.6 °F 36.5 °F 30.30 in SSW 1.7 mph -999.0 mph 79 % 0 in
21:12 42.1 °F 36.1 °F 30.30 in Calm   -999.0 mph 79 % 0 in
21:27 41.5 °F 35.8 °F 30.30 in Calm   -999.0 mph 80 % 0 in
21:42 41.2 °F 36.1 °F 30.31 in Calm   -999.0 mph 82 % 0 in
21:57 40.6 °F 35.5 °F 30.31 in South 1.7 mph -999.0 mph 82 % 0 in
22:12 40.3 °F 35.2 °F 30.31 in SSE 1.1 mph -999.0 mph 82 % 0 in
22:28 39.7 °F 35.3 °F 30.31 in Calm   -999.0 mph 84 % 0 in
22:43 39.6 °F 35.2 °F 30.31 in SSW 1.7 mph -999.0 mph 84 % 0 in
22:58 39.2 °F 35.7 °F 30.31 in SSW 1.1 mph -999.0 mph 87 % 0 in
23:13 38.7 °F 35.5 °F 30.31 in South 1.7 mph -999.0 mph 88 % 0 in
23:28 38.5 °F 35.3 °F 30.31 in South 1.1 mph -999.0 mph 88 % 0 in
23:44 38.3 °F 35.3 °F 30.31 in Calm   -999.0 mph 89 % 0 in
23:59 37.9 °F 35.5 °F 30.31 in Calm   -999.0 mph 91 % 0 in
Big Bear CA Weather
Compliments of Weather Underground - 1.5 mb